sensor_id;sensor_type;location;lat;lon;timestamp;pressure;altitude;pressure_sealevel;temperature;humidity
80911;BME280;70359;51.420;7.032;2023-06-22T00:01:50;1003.769;;;23.85;42.7627
80911;BME280;70359;51.420;7.032;2023-06-22T00:04:15;1003.806;;;23.8;42.86328
80911;BME280;70359;51.420;7.032;2023-06-22T00:06:40;1003.841;;;23.75;43.32813
80911;BME280;70359;51.420;7.032;2023-06-22T00:09:05;1003.897;;;23.73;43.57227
80911;BME280;70359;51.420;7.032;2023-06-22T00:11:30;1003.855;;;23.74;43.85352
80911;BME280;70359;51.420;7.032;2023-06-22T00:13:55;1003.836;;;23.69;44.11816
80911;BME280;70359;51.420;7.032;2023-06-22T00:16:20;1003.829;;;23.7;44.56348
80911;BME280;70359;51.420;7.032;2023-06-22T00:18:45;1003.845;;;23.69;44.96191
80911;BME280;70359;51.420;7.032;2023-06-22T00:21:10;1003.907;;;23.68;45.13574
80911;BME280;70359;51.420;7.032;2023-06-22T00:23:35;1003.893;;;23.66;45.73047
80911;BME280;70359;51.420;7.032;2023-06-22T00:26:00;1003.871;;;23.62;45.92676
80911;BME280;70359;51.420;7.032;2023-06-22T00:28:25;1003.848;;;23.54;46.22168
80911;BME280;70359;51.420;7.032;2023-06-22T00:30:50;1003.833;;;23.55;46.38672
80911;BME280;70359;51.420;7.032;2023-06-22T00:33:15;1003.882;;;23.54;46.5957
80911;BME280;70359;51.420;7.032;2023-06-22T00:35:40;1003.814;;;23.47;46.75293
80911;BME280;70359;51.420;7.032;2023-06-22T00:38:05;1003.833;;;23.49;46.87207
80911;BME280;70359;51.420;7.032;2023-06-22T00:40:31;1003.799;;;23.35;47.34766
80911;BME280;70359;51.420;7.032;2023-06-22T00:42:55;1003.794;;;23.38;47.23535
80911;BME280;70359;51.420;7.032;2023-06-22T00:45:20;1003.723;;;23.32;47.53223
80911;BME280;70359;51.420;7.032;2023-06-22T00:47:45;1003.737;;;23.44;47.26465
80911;BME280;70359;51.420;7.032;2023-06-22T00:50:10;1003.718;;;23.3;47.76367
80911;BME280;70359;51.420;7.032;2023-06-22T00:52:35;1003.689;;;23.38;47.72461
80911;BME280;70359;51.420;7.032;2023-06-22T00:55:00;1003.749;;;23.29;48.03223
80911;BME280;70359;51.420;7.032;2023-06-22T00:57:25;1003.703;;;23.27;48.1582
80911;BME280;70359;51.420;7.032;2023-06-22T00:59:50;1003.682;;;23.28;48.00684
80911;BME280;70359;51.420;7.032;2023-06-22T01:02:15;1003.647;;;23.37;47.78223
80911;BME280;70359;51.420;7.032;2023-06-22T01:04:40;1003.632;;;23.39;47.7627
80911;BME280;70359;51.420;7.032;2023-06-22T01:07:06;1003.621;;;23.44;47.69629
80911;BME280;70359;51.420;7.032;2023-06-22T01:09:31;1003.625;;;23.39;47.95996
80911;BME280;70359;51.420;7.032;2023-06-22T01:11:57;1003.634;;;23.36;47.84082
80911;BME280;70359;51.420;7.032;2023-06-22T01:14:20;1003.625;;;23.32;47.96484
80911;BME280;70359;51.420;7.032;2023-06-22T01:16:45;1003.614;;;23.4;47.90332
80911;BME280;70359;51.420;7.032;2023-06-22T01:19:16;1003.593;;;23.42;47.83496
80911;BME280;70359;51.420;7.032;2023-06-22T01:21:35;1003.605;;;23.43;47.98828
80911;BME280;70359;51.420;7.032;2023-06-22T01:24:02;1003.589;;;23.45;47.74414
80911;BME280;70359;51.420;7.032;2023-06-22T01:26:30;1003.562;;;23.51;47.79688
80911;BME280;70359;51.420;7.032;2023-06-22T01:28:52;1003.571;;;23.54;47.87207
80911;BME280;70359;51.420;7.032;2023-06-22T01:31:16;1003.573;;;23.57;47.72266
80911;BME280;70359;51.420;7.032;2023-06-22T01:33:41;1003.504;;;23.57;47.52344
80911;BME280;70359;51.420;7.032;2023-06-22T01:36:05;1003.48;;;23.52;47.89258
80911;BME280;70359;51.420;7.032;2023-06-22T01:38:30;1003.451;;;23.49;47.80762
80911;BME280;70359;51.420;7.032;2023-06-22T01:40:55;1003.428;;;23.51;47.78613
80911;BME280;70359;51.420;7.032;2023-06-22T01:43:20;1003.429;;;23.59;47.62988
80911;BME280;70359;51.420;7.032;2023-06-22T01:45:45;1003.412;;;23.6;47.62012
80911;BME280;70359;51.420;7.032;2023-06-22T01:48:10;1003.418;;;23.63;47.68262
80911;BME280;70359;51.420;7.032;2023-06-22T01:50:35;1003.429;;;23.64;47.66016
80911;BME280;70359;51.420;7.032;2023-06-22T01:53:00;1003.42;;;23.65;47.67285
80911;BME280;70359;51.420;7.032;2023-06-22T01:55:25;1003.424;;;23.63;47.81055
80911;BME280;70359;51.420;7.032;2023-06-22T01:57:50;1003.42;;;23.64;47.66016
80911;BME280;70359;51.420;7.032;2023-06-22T02:00:17;1003.388;;;23.58;47.96875
80911;BME280;70359;51.420;7.032;2023-06-22T02:02:42;1003.433;;;23.54;48.29199
80911;BME280;70359;51.420;7.032;2023-06-22T02:05:06;1003.406;;;23.51;48.11328
80911;BME280;70359;51.420;7.032;2023-06-22T02:07:31;1003.435;;;23.55;48.43359
80911;BME280;70359;51.420;7.032;2023-06-22T02:09:55;1003.445;;;23.53;48.26758
80911;BME280;70359;51.420;7.032;2023-06-22T02:12:21;1003.452;;;23.56;48.22461
80911;BME280;70359;51.420;7.032;2023-06-22T02:14:45;1003.416;;;23.5;48.48633
80911;BME280;70359;51.420;7.032;2023-06-22T02:17:11;1003.413;;;23.48;48.60059
80911;BME280;70359;51.420;7.032;2023-06-22T02:19:35;1003.459;;;23.42;48.62988
80911;BME280;70359;51.420;7.032;2023-06-22T02:22:00;1003.452;;;23.45;48.44629
80911;BME280;70359;51.420;7.032;2023-06-22T02:24:25;1003.424;;;23.41;48.62891
80911;BME280;70359;51.420;7.032;2023-06-22T02:26:50;1003.379;;;23.43;48.75977
80911;BME280;70359;51.420;7.032;2023-06-22T02:29:15;1003.332;;;23.44;48.78418
80911;BME280;70359;51.420;7.032;2023-06-22T02:31:40;1003.296;;;23.29;49.11816
80911;BME280;70359;51.420;7.032;2023-06-22T02:34:05;1003.24;;;23.26;49.2207
80911;BME280;70359;51.420;7.032;2023-06-22T02:36:30;1003.231;;;23.25;49.30176
80911;BME280;70359;51.420;7.032;2023-06-22T02:38:55;1003.246;;;23.27;49.36133
80911;BME280;70359;51.420;7.032;2023-06-22T02:41:20;1003.206;;;23.29;49.36426
80911;BME280;70359;51.420;7.032;2023-06-22T02:43:45;1003.238;;;23.3;49.30664
80911;BME280;70359;51.420;7.032;2023-06-22T02:46:10;1003.236;;;23.26;49.67578
80911;BME280;70359;51.420;7.032;2023-06-22T02:48:35;1003.203;;;23.28;49.60742
80911;BME280;70359;51.420;7.032;2023-06-22T02:51:00;1003.16;;;23.23;49.75586
80911;BME280;70359;51.420;7.032;2023-06-22T02:53:25;1003.125;;;23.22;49.8584
80911;BME280;70359;51.420;7.032;2023-06-22T02:55:50;1003.115;;;23.15;50.17773
80911;BME280;70359;51.420;7.032;2023-06-22T02:58:15;1003.108;;;23.02;50.45508
80911;BME280;70359;51.420;7.032;2023-06-22T03:00:40;1003.067;;;23;50.59277
80911;BME280;70359;51.420;7.032;2023-06-22T03:03:05;1003.037;;;23.02;50.54785
80911;BME280;70359;51.420;7.032;2023-06-22T03:05:30;1003.047;;;22.91;50.82813
80911;BME280;70359;51.420;7.032;2023-06-22T03:07:55;1003.042;;;22.79;51.04785
80911;BME280;70359;51.420;7.032;2023-06-22T03:10:20;1003.046;;;22.73;51.29785
80911;BME280;70359;51.420;7.032;2023-06-22T03:12:45;1003.021;;;22.76;51.17285
80911;BME280;70359;51.420;7.032;2023-06-22T03:15:11;1002.998;;;22.71;51.2959
80911;BME280;70359;51.420;7.032;2023-06-22T03:17:36;1002.99;;;22.66;51.46387
80911;BME280;70359;51.420;7.032;2023-06-22T03:20:00;1002.967;;;22.63;51.55371
80911;BME280;70359;51.420;7.032;2023-06-22T03:22:25;1002.963;;;22.66;51.46387
80911;BME280;70359;51.420;7.032;2023-06-22T03:24:50;1002.915;;;22.65;51.49805
80911;BME280;70359;51.420;7.032;2023-06-22T03:27:15;1002.913;;;22.7;51.56348
80911;BME280;70359;51.420;7.032;2023-06-22T03:29:40;1002.922;;;22.68;51.45508
80911;BME280;70359;51.420;7.032;2023-06-22T03:32:06;1002.907;;;22.75;51.34668
80911;BME280;70359;51.420;7.032;2023-06-22T03:34:30;1002.885;;;22.71;51.57422
80911;BME280;70359;51.420;7.032;2023-06-22T03:36:55;1002.916;;;22.74;51.42578
80911;BME280;70359;51.420;7.032;2023-06-22T03:39:20;1002.893;;;22.74;51.36816
80911;BME280;70359;51.420;7.032;2023-06-22T03:41:45;1002.926;;;22.62;51.77539
80911;BME280;70359;51.420;7.032;2023-06-22T03:44:10;1002.933;;;22.55;51.96484
80911;BME280;70359;51.420;7.032;2023-06-22T03:46:35;1002.92;;;22.47;52.29395
80911;BME280;70359;51.420;7.032;2023-06-22T03:49:01;1002.765;;;22.48;52.06152
80911;BME280;70359;51.420;7.032;2023-06-22T03:51:26;1002.74;;;22.45;52.1748
80911;BME280;70359;51.420;7.032;2023-06-22T03:53:51;1002.725;;;22.48;52.29395
80911;BME280;70359;51.420;7.032;2023-06-22T03:56:16;1002.693;;;22.44;52.40625
80911;BME280;70359;51.420;7.032;2023-06-22T03:58:41;1002.675;;;22.47;52.29395
80911;BME280;70359;51.420;7.032;2023-06-22T04:01:06;1002.665;;;22.46;52.44336
80911;BME280;70359;51.420;7.032;2023-06-22T04:03:31;1002.709;;;22.4;52.59961
80911;BME280;70359;51.420;7.032;2023-06-22T04:05:56;1002.732;;;22.41;52.56641
80911;BME280;70359;51.420;7.032;2023-06-22T04:08:21;1002.724;;;22.42;52.76465
80911;BME280;70359;51.420;7.032;2023-06-22T04:10:46;1002.692;;;22.45;52.55859
80911;BME280;70359;51.420;7.032;2023-06-22T04:13:11;1002.671;;;22.5;52.4248
80911;BME280;70359;51.420;7.032;2023-06-22T04:15:36;1002.728;;;22.4;52.78613
80911;BME280;70359;51.420;7.032;2023-06-22T04:18:01;1002.779;;;22.4;52.82129
80911;BME280;70359;51.420;7.032;2023-06-22T04:20:26;1002.749;;;22.44;52.70996
80911;BME280;70359;51.420;7.032;2023-06-22T04:22:51;1002.709;;;22.45;52.70996
80911;BME280;70359;51.420;7.032;2023-06-22T04:25:16;1002.721;;;22.44;52.9541
80911;BME280;70359;51.420;7.032;2023-06-22T04:27:41;1002.811;;;22.4;52.99609
80911;BME280;70359;51.420;7.032;2023-06-22T04:30:06;1002.82;;;22.35;53.21094
80911;BME280;70359;51.420;7.032;2023-06-22T04:32:31;1002.834;;;22.4;53.22852
80911;BME280;70359;51.420;7.032;2023-06-22T04:34:56;1002.861;;;22.38;53.2373
80911;BME280;70359;51.420;7.032;2023-06-22T04:37:21;1002.874;;;22.43;53.2207
80911;BME280;70359;51.420;7.032;2023-06-22T04:39:46;1002.92;;;22.46;53.1416
80911;BME280;70359;51.420;7.032;2023-06-22T04:42:11;1002.874;;;22.48;53.08691
80911;BME280;70359;51.420;7.032;2023-06-22T04:44:36;1002.855;;;22.46;53.49219
80911;BME280;70359;51.420;7.032;2023-06-22T04:47:01;1002.826;;;22.52;53.40527
80911;BME280;70359;51.420;7.032;2023-06-22T04:49:26;1002.775;;;22.48;53.75098
80911;BME280;70359;51.420;7.032;2023-06-22T04:51:51;1002.743;;;22.52;54
80911;BME280;70359;51.420;7.032;2023-06-22T04:54:16;1002.731;;;22.54;53.91016
80911;BME280;70359;51.420;7.032;2023-06-22T04:56:41;1002.71;;;22.5;54.75488
80911;BME280;70359;51.420;7.032;2023-06-22T04:59:06;1002.713;;;22.47;54.54199
80911;BME280;70359;51.420;7.032;2023-06-22T05:01:31;1002.687;;;22.47;54.91309
80911;BME280;70359;51.420;7.032;2023-06-22T05:03:56;1002.68;;;22.45;54.75977
80911;BME280;70359;51.420;7.032;2023-06-22T05:06:21;1002.701;;;22.41;54.94141
80911;BME280;70359;51.420;7.032;2023-06-22T05:08:46;1002.697;;;22.45;54.92285
80911;BME280;70359;51.420;7.032;2023-06-22T05:11:11;1002.658;;;22.44;55.15527
80911;BME280;70359;51.420;7.032;2023-06-22T05:13:36;1002.708;;;22.44;54.84082
80911;BME280;70359;51.420;7.032;2023-06-22T05:16:01;1002.774;;;22.43;55.09375
80911;BME280;70359;51.420;7.032;2023-06-22T05:18:26;1002.769;;;22.44;55.08594
80911;BME280;70359;51.420;7.032;2023-06-22T05:20:51;1002.701;;;22.45;55.2832
80911;BME280;70359;51.420;7.032;2023-06-22T05:23:16;1002.729;;;22.36;55.31934
80911;BME280;70359;51.420;7.032;2023-06-22T05:25:41;1002.739;;;22.27;55.51855
80911;BME280;70359;51.420;7.032;2023-06-22T05:28:06;1002.774;;;22.27;55.72656
80911;BME280;70359;51.420;7.032;2023-06-22T05:30:31;1002.795;;;22.3;55.82324
80911;BME280;70359;51.420;7.032;2023-06-22T05:32:56;1002.796;;;22.18;56.18164
80911;BME280;70359;51.420;7.032;2023-06-22T05:35:21;1002.77;;;22.17;56.0166
80911;BME280;70359;51.420;7.032;2023-06-22T05:37:46;1002.789;;;22.24;55.83984
80911;BME280;70359;51.420;7.032;2023-06-22T05:40:12;1002.813;;;22.2;55.94043
80911;BME280;70359;51.420;7.032;2023-06-22T05:42:36;1002.814;;;22.21;55.78906
80911;BME280;70359;51.420;7.032;2023-06-22T05:45:01;1002.785;;;22.17;55.95898
80911;BME280;70359;51.420;7.032;2023-06-22T05:47:26;1002.865;;;22.27;55.55273
80911;BME280;70359;51.420;7.032;2023-06-22T05:49:51;1002.89;;;22.2;55.8457
80911;BME280;70359;51.420;7.032;2023-06-22T05:52:16;1002.959;;;22.25;55.95605
80911;BME280;70359;51.420;7.032;2023-06-22T05:54:41;1002.959;;;22.21;56.06934
80911;BME280;70359;51.420;7.032;2023-06-22T05:57:06;1002.976;;;22.27;55.86621
80911;BME280;70359;51.420;7.032;2023-06-22T05:59:31;1002.983;;;22.23;55.72363
80911;BME280;70359;51.420;7.032;2023-06-22T06:01:56;1003.005;;;22.24;55.7002
80911;BME280;70359;51.420;7.032;2023-06-22T06:04:21;1002.988;;;22.27;55.98242
80911;BME280;70359;51.420;7.032;2023-06-22T06:06:46;1002.986;;;22.31;55.67383
80911;BME280;70359;51.420;7.032;2023-06-22T06:09:11;1002.958;;;22.34;55.3877
80911;BME280;70359;51.420;7.032;2023-06-22T06:11:36;1002.927;;;22.36;55.5293
80911;BME280;70359;51.420;7.032;2023-06-22T06:14:01;1002.865;;;22.35;55.3877
80911;BME280;70359;51.420;7.032;2023-06-22T06:16:26;1002.867;;;22.29;55.8584
80911;BME280;70359;51.420;7.032;2023-06-22T06:18:51;1002.824;;;22.28;56.04297
80911;BME280;70359;51.420;7.032;2023-06-22T06:21:16;1002.82;;;22.29;55.88184
80911;BME280;70359;51.420;7.032;2023-06-22T06:23:41;1002.847;;;22.32;55.55859
80911;BME280;70359;51.420;7.032;2023-06-22T06:26:06;1002.83;;;22.27;55.51855
80911;BME280;70359;51.420;7.032;2023-06-22T06:28:31;1002.807;;;22.27;56.06445
80911;BME280;70359;51.420;7.032;2023-06-22T06:30:56;1002.783;;;22.26;55.96973
80911;BME280;70359;51.420;7.032;2023-06-22T06:33:21;1002.815;;;22.18;55.78613
80911;BME280;70359;51.420;7.032;2023-06-22T06:35:46;1002.846;;;22.26;56.21387
80911;BME280;70359;51.420;7.032;2023-06-22T06:38:11;1002.851;;;22.32;55.22168
80911;BME280;70359;51.420;7.032;2023-06-22T06:40:36;1002.87;;;22.3;55.78809
80911;BME280;70359;51.420;7.032;2023-06-22T06:43:01;1002.886;;;22.39;55.16016
80911;BME280;70359;51.420;7.032;2023-06-22T06:45:26;1002.903;;;22.38;54.73926
80911;BME280;70359;51.420;7.032;2023-06-22T06:47:51;1002.84;;;22.38;54.11133
80911;BME280;70359;51.420;7.032;2023-06-22T06:50:16;1002.815;;;22.32;54.25586
80911;BME280;70359;51.420;7.032;2023-06-22T06:52:41;1002.8;;;22.36;54.15527
80911;BME280;70359;51.420;7.032;2023-06-22T06:55:07;1002.824;;;22.36;54.3877
80911;BME280;70359;51.420;7.032;2023-06-22T06:57:31;1002.829;;;22.47;54.43652
80911;BME280;70359;51.420;7.032;2023-06-22T06:59:56;1002.804;;;22.45;54.36328
80911;BME280;70359;51.420;7.032;2023-06-22T07:02:21;1002.771;;;22.54;54.56055
80911;BME280;70359;51.420;7.032;2023-06-22T07:04:46;1002.645;;;22.48;54.71777
80911;BME280;70359;51.420;7.032;2023-06-22T07:07:11;1002.602;;;22.54;54.67871
80911;BME280;70359;51.420;7.032;2023-06-22T07:09:36;1002.663;;;22.54;54.8877
80911;BME280;70359;51.420;7.032;2023-06-22T07:12:01;1002.638;;;22.57;55.2168
80911;BME280;70359;51.420;7.032;2023-06-22T07:14:26;1002.597;;;22.62;55.00293
80911;BME280;70359;51.420;7.032;2023-06-22T07:16:51;1002.646;;;22.63;54.65332
80911;BME280;70359;51.420;7.032;2023-06-22T07:19:16;1002.704;;;22.68;54.61328
80911;BME280;70359;51.420;7.032;2023-06-22T07:21:41;1002.701;;;22.74;54.27051
80911;BME280;70359;51.420;7.032;2023-06-22T07:24:06;1002.708;;;22.81;53.73145
80911;BME280;70359;51.420;7.032;2023-06-22T07:26:31;1002.796;;;22.79;53.68164
80911;BME280;70359;51.420;7.032;2023-06-22T07:28:56;1002.796;;;22.81;54.20996
80911;BME280;70359;51.420;7.032;2023-06-22T07:31:21;1002.852;;;22.84;54.39844
80911;BME280;70359;51.420;7.032;2023-06-22T07:33:46;1002.827;;;22.93;55.30859
80911;BME280;70359;51.420;7.032;2023-06-22T07:36:11;1002.758;;;22.92;57.2168
80911;BME280;70359;51.420;7.032;2023-06-22T07:38:36;1002.647;;;22.96;57.96777
80911;BME280;70359;51.420;7.032;2023-06-22T07:41:01;1002.582;;;22.96;58.21191
80911;BME280;70359;51.420;7.032;2023-06-22T07:43:26;1002.501;;;22.98;57.12109
80911;BME280;70359;51.420;7.032;2023-06-22T07:45:54;1002.444;;;22.95;58.02441
80911;BME280;70359;51.420;7.032;2023-06-22T07:48:16;1002.419;;;22.95;56.8252
80911;BME280;70359;51.420;7.032;2023-06-22T07:50:41;1002.473;;;22.95;57.54688
80911;BME280;70359;51.420;7.032;2023-06-22T07:53:06;1002.504;;;22.98;57.5752
80911;BME280;70359;51.420;7.032;2023-06-22T07:55:33;1002.538;;;23.01;58.89355
80911;BME280;70359;51.420;7.032;2023-06-22T07:57:56;1002.465;;;23.03;58.25586
80911;BME280;70359;51.420;7.032;2023-06-22T08:00:21;1002.394;;;23.01;58.55664
80911;BME280;70359;51.420;7.032;2023-06-22T08:02:46;1002.285;;;23.01;58.91699
80911;BME280;70359;51.420;7.032;2023-06-22T08:05:11;1002.175;;;22.95;58.72363
80911;BME280;70359;51.420;7.032;2023-06-22T08:07:36;1002.06;;;22.98;58.37891
80911;BME280;70359;51.420;7.032;2023-06-22T08:10:01;1001.963;;;22.94;58.10352
80911;BME280;70359;51.420;7.032;2023-06-22T08:12:26;1001.904;;;22.88;59.6582
80911;BME280;70359;51.420;7.032;2023-06-22T08:14:51;1001.916;;;22.85;59.93262
80911;BME280;70359;51.420;7.032;2023-06-22T08:17:16;1001.93;;;22.89;59.7041
80911;BME280;70359;51.420;7.032;2023-06-22T08:19:41;1001.961;;;22.82;60.11523
80911;BME280;70359;51.420;7.032;2023-06-22T08:22:06;1001.984;;;22.84;59.80273
80911;BME280;70359;51.420;7.032;2023-06-22T08:24:31;1001.831;;;22.78;59.7832
80911;BME280;70359;51.420;7.032;2023-06-22T08:26:56;1001.692;;;22.82;59.88086
80911;BME280;70359;51.420;7.032;2023-06-22T08:29:21;1001.605;;;22.68;60.51465
80911;BME280;70359;51.420;7.032;2023-06-22T08:31:46;1001.592;;;22.57;59.91895
80911;BME280;70359;51.420;7.032;2023-06-22T08:34:11;1001.589;;;22.58;59.83789
80911;BME280;70359;51.420;7.032;2023-06-22T08:36:36;1001.63;;;22.47;59.94043
80911;BME280;70359;51.420;7.032;2023-06-22T08:39:01;1001.64;;;22.49;60.66309
80911;BME280;70359;51.420;7.032;2023-06-22T08:41:26;1001.663;;;22.55;60.61328
80911;BME280;70359;51.420;7.032;2023-06-22T08:43:51;1001.642;;;22.45;61.06445
80911;BME280;70359;51.420;7.032;2023-06-22T08:46:16;1001.616;;;22.44;61.19043
80911;BME280;70359;51.420;7.032;2023-06-22T08:48:41;1001.57;;;22.43;60.98145
80911;BME280;70359;51.420;7.032;2023-06-22T08:51:06;1001.595;;;22.44;61.54004
80911;BME280;70359;51.420;7.032;2023-06-22T08:53:31;1001.595;;;22.54;61.19336
80911;BME280;70359;51.420;7.032;2023-06-22T08:55:56;1001.582;;;22.48;61.51074
80911;BME280;70359;51.420;7.032;2023-06-22T08:58:21;1001.59;;;22.52;60.7832
80911;BME280;70359;51.420;7.032;2023-06-22T09:00:46;1001.567;;;22.48;61.51074
80911;BME280;70359;51.420;7.032;2023-06-22T09:03:11;1001.593;;;22.55;61.43945
80911;BME280;70359;51.420;7.032;2023-06-22T09:05:36;1001.559;;;22.59;61.80371
80911;BME280;70359;51.420;7.032;2023-06-22T09:08:01;1001.499;;;22.55;61.60059
80911;BME280;70359;51.420;7.032;2023-06-22T09:10:26;1001.48;;;22.63;62.14648
80911;BME280;70359;51.420;7.032;2023-06-22T09:12:51;1001.518;;;22.62;62.41211
80911;BME280;70359;51.420;7.032;2023-06-22T09:15:16;1001.542;;;22.67;62.45605
80911;BME280;70359;51.420;7.032;2023-06-22T09:17:41;1001.433;;;22.8;62.16992
80911;BME280;70359;51.420;7.032;2023-06-22T09:20:07;1001.446;;;22.91;61.69629
80911;BME280;70359;51.420;7.032;2023-06-22T09:22:31;1001.378;;;23.05;61.99512
80911;BME280;70359;51.420;7.032;2023-06-22T09:24:56;1001.348;;;23.1;62.72363
80911;BME280;70359;51.420;7.032;2023-06-22T09:27:21;1001.338;;;23.08;63.2666
80911;BME280;70359;51.420;7.032;2023-06-22T09:29:46;1001.359;;;23.17;62.66309
80911;BME280;70359;51.420;7.032;2023-06-22T09:32:11;1001.273;;;23.26;61.8623
80911;BME280;70359;51.420;7.032;2023-06-22T09:34:36;1001.293;;;23.28;61.81641
80911;BME280;70359;51.420;7.032;2023-06-22T09:37:01;1001.219;;;23.32;60.98438
80911;BME280;70359;51.420;7.032;2023-06-22T09:39:26;1001.254;;;23.35;59.97461
80911;BME280;70359;51.420;7.032;2023-06-22T09:41:51;1001.231;;;23.3;59.54785
80911;BME280;70359;51.420;7.032;2023-06-22T09:44:16;1001.252;;;23.3;59.375
80911;BME280;70359;51.420;7.032;2023-06-22T09:46:41;1001.348;;;23.48;58.54688
80911;BME280;70359;51.420;7.032;2023-06-22T09:49:06;1001.273;;;23.48;58.19629
80911;BME280;70359;51.420;7.032;2023-06-22T09:51:31;1001.283;;;23.65;58.11523
80911;BME280;70359;51.420;7.032;2023-06-22T09:53:56;1001.215;;;23.74;58.21973
80911;BME280;70359;51.420;7.032;2023-06-22T09:56:21;1001.163;;;23.75;59.29395
80911;BME280;70359;51.420;7.032;2023-06-22T09:58:46;1001.066;;;23.78;58.60938
80911;BME280;70359;51.420;7.032;2023-06-22T10:01:11;1001.011;;;23.75;58.37305
80911;BME280;70359;51.420;7.032;2023-06-22T10:03:36;1000.922;;;23.86;57.76855
80911;BME280;70359;51.420;7.032;2023-06-22T10:06:01;1000.9;;;23.86;58.6084
80911;BME280;70359;51.420;7.032;2023-06-22T10:08:26;1000.857;;;24.02;57.04102
80911;BME280;70359;51.420;7.032;2023-06-22T10:10:51;1000.844;;;24.11;57.36719
80911;BME280;70359;51.420;7.032;2023-06-22T10:13:16;1000.838;;;24.1;57.8916
80911;BME280;70359;51.420;7.032;2023-06-22T10:15:41;1000.846;;;23.99;57.3877
80911;BME280;70359;51.420;7.032;2023-06-22T10:18:06;1000.836;;;24.15;57.06934
80911;BME280;70359;51.420;7.032;2023-06-22T10:20:31;1000.809;;;24.17;58.21582
80911;BME280;70359;51.420;7.032;2023-06-22T10:22:56;1000.791;;;24.35;57.77148
80911;BME280;70359;51.420;7.032;2023-06-22T10:25:21;1000.814;;;24.31;57.73145
80911;BME280;70359;51.420;7.032;2023-06-22T10:27:46;1000.791;;;24.47;57.12207
80911;BME280;70359;51.420;7.032;2023-06-22T10:30:12;1000.79;;;24.51;56.23828
80911;BME280;70359;51.420;7.032;2023-06-22T10:32:37;1000.75;;;24.61;56.77637
80911;BME280;70359;51.420;7.032;2023-06-22T10:35:01;1000.712;;;24.61;56.89355
80911;BME280;70359;51.420;7.032;2023-06-22T10:37:26;1000.739;;;24.77;56.09375
80911;BME280;70359;51.420;7.032;2023-06-22T10:39:52;1000.665;;;24.69;56.44922
80911;BME280;70359;51.420;7.032;2023-06-22T10:42:16;1000.667;;;24.7;55.83008
80911;BME280;70359;51.420;7.032;2023-06-22T10:44:41;1000.644;;;24.65;56.2793
80911;BME280;70359;51.420;7.032;2023-06-22T10:47:07;1000.696;;;24.72;55.72559
80911;BME280;70359;51.420;7.032;2023-06-22T10:49:32;1000.682;;;24.83;56.18457
80911;BME280;70359;51.420;7.032;2023-06-22T10:51:57;1000.743;;;24.89;55.8291
80911;BME280;70359;51.420;7.032;2023-06-22T10:54:21;1000.769;;;24.94;55.10938
80911;BME280;70359;51.420;7.032;2023-06-22T10:56:47;1000.856;;;24.96;55.07715
80911;BME280;70359;51.420;7.032;2023-06-22T10:59:12;1000.95;;;25.05;55.22852
80911;BME280;70359;51.420;7.032;2023-06-22T11:01:41;1001.046;;;25.09;54.44922
80911;BME280;70359;51.420;7.032;2023-06-22T11:04:02;1001.089;;;25.21;54.09961
80911;BME280;70359;51.420;7.032;2023-06-22T11:06:27;1001.126;;;25.18;54.00195
80911;BME280;70359;51.420;7.032;2023-06-22T11:08:52;1001.132;;;25.26;53.82422
80911;BME280;70359;51.420;7.032;2023-06-22T11:11:17;1001.122;;;25.11;54.2168
80911;BME280;70359;51.420;7.032;2023-06-22T11:13:42;1001.107;;;25.13;54.61816
80911;BME280;70359;51.420;7.032;2023-06-22T11:16:07;1001.148;;;25.13;55.48242
80911;BME280;70359;51.420;7.032;2023-06-22T11:18:32;1001.121;;;25.27;55.94531
80911;BME280;70359;51.420;7.032;2023-06-22T11:20:57;1001.117;;;25.19;56.91992
80911;BME280;70359;51.420;7.032;2023-06-22T11:23:22;1001.081;;;25.22;57.90723
80911;BME280;70359;51.420;7.032;2023-06-22T11:25:47;1001.103;;;25.15;57.83887
80911;BME280;70359;51.420;7.032;2023-06-22T11:28:12;1001.09;;;25.22;58.10547
80911;BME280;70359;51.420;7.032;2023-06-22T11:30:37;1001.141;;;25.21;59.05371
80911;BME280;70359;51.420;7.032;2023-06-22T11:33:02;1001.123;;;25.25;59.47852
80911;BME280;70359;51.420;7.032;2023-06-22T11:35:27;1001.195;;;25.21;60.83203
80911;BME280;70359;51.420;7.032;2023-06-22T11:37:52;1001.24;;;25.24;60.9043
80911;BME280;70359;51.420;7.032;2023-06-22T11:40:17;1001.292;;;25.23;61.78125
80911;BME280;70359;51.420;7.032;2023-06-22T11:42:42;1001.268;;;25.2;62.54688
80911;BME280;70359;51.420;7.032;2023-06-22T11:45:07;1001.209;;;25.17;61.95801
80911;BME280;70359;51.420;7.032;2023-06-22T11:47:32;1001.161;;;25.12;61.75391
80911;BME280;70359;51.420;7.032;2023-06-22T11:49:57;1001.098;;;25.1;62.07715
80911;BME280;70359;51.420;7.032;2023-06-22T11:52:22;1001.095;;;25.05;63.5791
80911;BME280;70359;51.420;7.032;2023-06-22T11:54:47;1000.976;;;25.03;63.91309
80911;BME280;70359;51.420;7.032;2023-06-22T11:57:12;1000.905;;;24.96;64.23047
80911;BME280;70359;51.420;7.032;2023-06-22T11:59:37;1000.666;;;24.84;64.40137
80911;BME280;70359;51.420;7.032;2023-06-22T12:02:02;1000.521;;;24.72;64.52344
80911;BME280;70359;51.420;7.032;2023-06-22T12:04:27;1000.365;;;24.57;65.0625
80911;BME280;70359;51.420;7.032;2023-06-22T12:06:52;1000.412;;;24.54;65.38477
80911;BME280;70359;51.420;7.032;2023-06-22T12:09:17;1000.275;;;24.54;65.74512
80911;BME280;70359;51.420;7.032;2023-06-22T12:11:42;1000.246;;;24.44;65.7793
80911;BME280;70359;51.420;7.032;2023-06-22T12:14:07;1000.225;;;24.46;65.30176
80911;BME280;70359;51.420;7.032;2023-06-22T12:16:32;1000.17;;;24.35;66.32422
80911;BME280;70359;51.420;7.032;2023-06-22T12:18:57;1000.108;;;24.33;66.14551
80911;BME280;70359;51.420;7.032;2023-06-22T12:21:22;1000.036;;;24.22;66.59668